createdAt,value
2023-07-24T00:00:04.634Z,4.75
2023-07-24T00:03:06.121Z,5.70
2023-07-24T00:06:07.627Z,5.60
2023-07-24T00:09:09.056Z,6.28
2023-07-24T00:12:10.438Z,6.15
2023-07-24T00:15:11.991Z,6.18
2023-07-24T00:18:13.380Z,6.05
2023-07-24T00:21:14.850Z,6.22
2023-07-24T00:24:16.379Z,6.72
2023-07-24T00:27:17.812Z,5.57
2023-07-24T00:30:19.339Z,5.75
2023-07-24T00:33:20.758Z,6.00
2023-07-24T00:36:23.362Z,5.93
2023-07-24T00:39:24.852Z,5.55
2023-07-24T00:42:26.281Z,5.40
2023-07-24T00:45:27.794Z,5.80
2023-07-24T00:48:29.660Z,5.95
2023-07-24T00:51:31.934Z,5.85
2023-07-24T00:54:34.947Z,6.30
2023-07-24T00:57:36.575Z,6.25
2023-07-24T01:00:39.680Z,5.80
2023-07-24T01:03:41.193Z,5.68
2023-07-24T01:06:42.761Z,5.70
2023-07-24T01:09:44.366Z,5.65
2023-07-24T01:13:01.113Z,6.55
2023-07-24T01:16:10.678Z,6.88
2023-07-24T01:19:47.376Z,6.30
2023-07-24T01:23:06.886Z,6.07
2023-07-24T01:26:09.107Z,6.32
2023-07-24T01:29:10.519Z,6.28
2023-07-24T01:32:11.957Z,6.35
2023-07-24T01:35:13.581Z,6.30
2023-07-24T01:38:15.683Z,6.70
2023-07-24T01:41:17.981Z,7.18
2023-07-24T01:44:19.484Z,7.07
2023-07-24T01:47:21.396Z,6.20
2023-07-24T01:50:22.829Z,6.53
2023-07-24T01:53:24.288Z,7.45
2023-07-24T01:56:25.794Z,6.65
2023-07-24T01:59:27.277Z,7.28
2023-07-24T02:02:28.744Z,6.00
2023-07-24T02:05:30.849Z,6.97
2023-07-24T02:08:32.288Z,6.88
2023-07-24T02:11:33.729Z,6.82
2023-07-24T02:14:35.174Z,5.97
2023-07-24T02:17:36.870Z,6.05
2023-07-24T02:20:38.297Z,6.93
2023-07-24T02:23:39.830Z,7.05
2023-07-24T02:26:41.231Z,7.20
2023-07-24T02:29:42.636Z,6.50
2023-07-24T02:32:44.089Z,6.60
2023-07-24T02:35:45.582Z,7.18
2023-07-24T02:38:47.032Z,7.00
2023-07-24T02:41:51.320Z,6.55
2023-07-24T02:44:54.178Z,6.30
2023-07-24T02:47:55.661Z,7.00
2023-07-24T02:50:57.143Z,6.93
2023-07-24T02:53:58.613Z,7.93
2023-07-24T02:57:00.043Z,6.85
2023-07-24T03:00:01.451Z,7.30
2023-07-24T03:03:03.025Z,6.65
2023-07-24T03:06:04.509Z,6.90
2023-07-24T03:09:05.919Z,6.95
2023-07-24T03:12:07.664Z,7.72
2023-07-24T03:15:09.450Z,6.90
2023-07-24T03:18:10.868Z,7.72
2023-07-24T03:21:12.346Z,8.25
2023-07-24T03:24:13.780Z,7.72
2023-07-24T03:27:15.258Z,8.38
2023-07-24T03:30:16.707Z,7.55
2023-07-24T03:33:18.106Z,7.70
2023-07-24T03:36:19.817Z,7.57
2023-07-24T03:39:21.964Z,8.25
2023-07-24T03:42:28.221Z,7.97
2023-07-24T03:45:29.822Z,8.02
2023-07-24T03:48:31.212Z,6.68
2023-07-24T03:51:34.316Z,7.90
2023-07-24T03:54:35.737Z,7.10
2023-07-24T03:57:37.319Z,7.68
2023-07-24T04:00:38.791Z,7.70
2023-07-24T04:03:40.347Z,8.13
2023-07-24T04:06:41.790Z,7.55
2023-07-24T04:09:43.250Z,7.78
2023-07-24T04:12:44.652Z,7.82
2023-07-24T04:15:46.171Z,8.13
2023-07-24T04:18:47.553Z,8.45
2023-07-24T04:21:48.984Z,8.88
2023-07-24T04:24:50.474Z,9.05
2023-07-24T04:27:51.999Z,8.32
2023-07-24T04:30:53.511Z,9.73
2023-07-24T04:33:54.998Z,7.93
2023-07-24T04:36:56.399Z,7.38
2023-07-24T04:39:58.049Z,7.80
2023-07-24T04:42:59.540Z,8.50
2023-07-24T04:46:01.031Z,8.05
2023-07-24T04:49:02.481Z,8.50
2023-07-24T04:52:04.269Z,8.77
2023-07-24T04:55:06.260Z,9.15
2023-07-24T04:58:07.645Z,8.65
2023-07-24T05:01:10.256Z,8.27
2023-07-24T05:04:11.768Z,9.13
2023-07-24T05:07:13.201Z,9.07
2023-07-24T05:10:14.806Z,8.45
2023-07-24T05:13:16.324Z,8.38
2023-07-24T05:16:17.785Z,9.07
2023-07-24T05:19:19.208Z,8.38
2023-07-24T05:22:20.768Z,8.55
2023-07-24T05:25:22.271Z,9.55
2023-07-24T05:28:23.680Z,8.40
2023-07-24T05:31:25.140Z,9.38
2023-07-24T05:34:27.172Z,10.05
2023-07-24T05:37:28.581Z,9.50
2023-07-24T05:40:29.965Z,9.77
2023-07-24T05:43:32.258Z,9.35
2023-07-24T05:46:33.953Z,9.07
2023-07-24T05:49:35.575Z,9.13
2023-07-24T05:52:36.984Z,7.85
2023-07-24T05:55:38.422Z,8.13
2023-07-24T05:58:39.821Z,8.43
2023-07-24T06:01:41.382Z,9.38
2023-07-24T06:04:42.827Z,7.53
2023-07-24T06:07:44.423Z,8.18
2023-07-24T06:10:48.942Z,8.30
2023-07-24T06:13:50.597Z,9.13
2023-07-24T06:16:52.037Z,8.95
2023-07-24T06:19:53.435Z,9.10
2023-07-24T06:22:54.834Z,9.50
2023-07-24T06:25:56.456Z,8.20
2023-07-24T06:28:57.923Z,8.52
2023-07-24T06:31:59.343Z,7.82
2023-07-24T06:35:00.768Z,8.02
2023-07-24T06:38:02.224Z,7.57
2023-07-24T06:41:04.133Z,8.18
2023-07-24T06:44:05.572Z,8.65
2023-07-24T06:47:07.049Z,8.18
2023-07-24T06:50:09.059Z,9.27
2023-07-24T06:53:10.553Z,8.80
2023-07-24T06:56:12.044Z,8.93
2023-07-24T06:59:13.513Z,8.30
2023-07-24T07:02:14.940Z,8.75
2023-07-24T07:05:16.511Z,8.38
2023-07-24T07:08:17.911Z,8.15
2023-07-24T07:11:19.327Z,8.45
2023-07-24T07:14:20.802Z,9.07
2023-07-24T07:17:22.260Z,8.32
2023-07-24T07:20:23.711Z,9.35
2023-07-24T07:23:25.152Z,7.93
2023-07-24T07:26:26.631Z,9.00
2023-07-24T07:29:28.098Z,8.20
2023-07-24T07:32:29.552Z,7.78
2023-07-24T07:35:31.053Z,9.15
2023-07-24T07:38:33.057Z,8.80
2023-07-24T07:41:34.485Z,8.65
2023-07-24T07:44:35.975Z,8.18
2023-07-24T07:47:37.748Z,8.48
2023-07-24T07:50:39.239Z,8.10
2023-07-24T07:53:41.421Z,8.30
2023-07-24T07:56:43.264Z,8.15
2023-07-24T07:59:44.758Z,8.18
2023-07-24T08:02:46.170Z,8.90
2023-07-24T08:05:47.651Z,8.20
2023-07-24T08:08:49.113Z,8.75
2023-07-24T08:11:52.244Z,8.80
2023-07-24T08:14:53.648Z,9.00
2023-07-24T08:17:55.077Z,9.50
2023-07-24T08:20:56.517Z,8.43
2023-07-24T08:23:59.100Z,9.95
2023-07-24T08:27:00.522Z,8.38
2023-07-24T08:30:02.000Z,9.20
2023-07-24T08:33:03.979Z,9.00
2023-07-24T08:36:07.582Z,9.25
2023-07-24T08:39:09.015Z,8.98
2023-07-24T08:42:12.245Z,7.95
2023-07-24T08:45:14.839Z,8.55
2023-07-24T08:48:16.638Z,9.40
2023-07-24T08:51:19.927Z,8.73
2023-07-24T08:54:21.415Z,8.35
2023-07-24T08:57:23.072Z,8.63
2023-07-24T09:00:24.540Z,9.35
2023-07-24T09:03:26.425Z,8.15
2023-07-24T09:06:28.861Z,9.70
2023-07-24T09:09:32.120Z,7.40
2023-07-24T09:12:33.518Z,10.18
2023-07-24T09:15:44.896Z,8.88
2023-07-24T09:18:46.313Z,7.93
2023-07-24T09:21:47.788Z,8.95
2023-07-24T09:24:53.975Z,7.93
2023-07-24T09:27:55.613Z,8.45
2023-07-24T09:30:59.229Z,7.70
2023-07-24T09:34:00.795Z,8.32
2023-07-24T09:37:02.426Z,8.75
2023-07-24T09:40:07.451Z,8.68
2023-07-24T09:43:40.988Z,9.68
2023-07-24T09:46:47.789Z,8.45
2023-07-24T09:50:04.898Z,9.38
2023-07-24T09:53:07.081Z,8.30
2023-07-24T09:56:10.643Z,9.27
2023-07-24T09:59:13.291Z,8.15
2023-07-24T10:02:14.832Z,9.38
2023-07-24T10:05:17.061Z,8.85
2023-07-24T10:08:20.037Z,9.05
2023-07-24T10:11:21.688Z,8.35
2023-07-24T10:14:23.391Z,8.05
2023-07-24T10:17:41.920Z,8.85
2023-07-24T10:20:43.585Z,8.65
2023-07-24T10:23:50.026Z,8.50
2023-07-24T10:26:56.190Z,8.65
2023-07-24T10:30:22.599Z,9.60
2023-07-24T10:33:33.155Z,9.48
2023-07-24T10:36:37.023Z,8.65
2023-07-24T10:39:42.648Z,8.35
2023-07-24T10:42:44.141Z,8.18
2023-07-24T10:45:52.496Z,8.85
2023-07-24T10:48:53.984Z,8.52
2023-07-24T10:51:59.236Z,8.75
2023-07-24T10:55:04.838Z,8.52
2023-07-24T10:58:07.350Z,8.52
2023-07-24T11:01:10.495Z,8.63
2023-07-24T11:04:13.714Z,8.60
2023-07-24T11:07:15.770Z,8.50
2023-07-24T11:10:22.232Z,8.63
2023-07-24T11:13:28.855Z,7.45
2023-07-24T11:16:34.578Z,8.20
2023-07-24T11:19:36.503Z,8.75
2023-07-24T11:22:43.465Z,8.25
2023-07-24T11:25:45.831Z,7.45
2023-07-24T11:28:47.259Z,9.00
2023-07-24T11:31:55.158Z,8.73
2023-07-24T11:34:57.387Z,8.85
2023-07-24T11:37:58.957Z,8.85
2023-07-24T11:41:02.260Z,9.48
2023-07-24T11:44:04.119Z,8.40
2023-07-24T11:47:06.996Z,10.00
2023-07-24T11:50:09.050Z,9.77
2023-07-24T11:53:23.258Z,8.38
2023-07-24T11:56:24.724Z,9.70
2023-07-24T11:59:26.961Z,9.10
2023-07-24T12:02:29.383Z,9.93
2023-07-24T12:05:31.056Z,10.48
2023-07-24T12:08:34.822Z,8.55
2023-07-24T12:11:46.593Z,9.73
2023-07-24T12:14:48.448Z,9.75
2023-07-24T12:17:49.914Z,9.73
2023-07-24T12:20:51.469Z,8.80
2023-07-24T12:23:52.924Z,9.70
2023-07-24T12:26:54.351Z,8.30
2023-07-24T12:29:55.890Z,9.35
2023-07-24T12:32:57.449Z,8.07
2023-07-24T12:35:58.888Z,8.00
2023-07-24T12:39:00.330Z,8.85
2023-07-24T12:42:01.768Z,7.68
2023-07-24T12:45:06.129Z,8.25
2023-07-24T12:48:07.789Z,7.60
2023-07-24T12:51:09.431Z,7.75
2023-07-24T12:54:22.290Z,7.80
2023-07-24T12:57:32.320Z,7.00
2023-07-24T13:00:33.876Z,6.82
2023-07-24T13:03:35.756Z,6.38
2023-07-24T13:06:37.698Z,6.05
2023-07-24T13:09:39.143Z,6.60
2023-07-24T13:12:40.542Z,6.40
2023-07-24T13:15:42.073Z,5.90
2023-07-24T13:18:44.167Z,5.63
2023-07-24T13:21:47.114Z,5.75
2023-07-24T13:24:48.729Z,5.65
2023-07-24T13:27:51.357Z,5.35
2023-07-24T13:30:53.025Z,6.10
2023-07-24T13:33:54.504Z,6.20
2023-07-24T13:36:56.012Z,6.05
2023-07-24T13:39:57.416Z,5.95
2023-07-24T13:42:58.874Z,5.57
2023-07-24T13:46:00.513Z,5.40
2023-07-24T13:49:02.035Z,4.88
2023-07-24T13:52:03.643Z,5.72
2023-07-24T13:55:05.814Z,5.38
2023-07-24T13:58:07.291Z,5.25
2023-07-24T14:01:08.786Z,5.18
2023-07-24T14:04:10.356Z,5.60
2023-07-24T14:07:14.061Z,5.53
2023-07-24T14:10:15.606Z,5.17
2023-07-24T14:13:17.002Z,5.57
2023-07-24T14:16:18.801Z,4.97
2023-07-24T14:19:20.340Z,4.45
2023-07-24T14:22:21.803Z,4.18
2023-07-24T14:25:23.259Z,5.22
2023-07-24T14:28:24.718Z,4.35
2023-07-24T14:31:26.304Z,5.43
2023-07-24T14:34:27.821Z,5.32
2023-07-24T14:37:29.403Z,4.95
2023-07-24T14:40:30.833Z,4.53
2023-07-24T14:43:32.448Z,4.78
2023-07-24T14:46:33.919Z,4.95
2023-07-24T14:49:35.412Z,4.60
2023-07-24T14:52:36.949Z,5.03
2023-07-24T14:55:38.450Z,5.00
2023-07-24T14:58:43.025Z,4.40
2023-07-24T15:01:44.569Z,4.38
2023-07-24T15:04:52.116Z,4.80
2023-07-24T15:07:53.602Z,4.78
2023-07-24T15:10:55.134Z,4.13
2023-07-24T15:13:56.544Z,4.28
2023-07-24T15:16:58.052Z,4.60
2023-07-24T15:19:59.455Z,4.30
2023-07-24T15:23:01.113Z,4.70
2023-07-24T15:26:02.744Z,3.80
2023-07-24T15:29:04.430Z,3.80
2023-07-24T15:32:07.055Z,4.03
2023-07-24T15:35:08.569Z,4.03
2023-07-24T15:38:09.997Z,4.03
2023-07-24T15:41:11.417Z,3.67
2023-07-24T15:44:12.830Z,4.38
2023-07-24T15:47:14.290Z,3.95
2023-07-24T15:50:15.929Z,4.25
2023-07-24T15:53:17.310Z,4.68
2023-07-24T15:56:18.884Z,4.40
2023-07-24T15:59:20.357Z,3.60
2023-07-24T16:02:21.878Z,5.20
2023-07-24T16:05:23.447Z,4.68
2023-07-24T16:08:25.228Z,4.60
2023-07-24T16:11:28.248Z,4.38
2023-07-24T16:14:30.098Z,5.95
2023-07-24T16:17:33.742Z,4.70
2023-07-24T16:20:36.055Z,4.47
2023-07-24T16:23:37.726Z,5.38
2023-07-24T16:26:39.940Z,4.55
2023-07-24T16:29:41.382Z,5.95
2023-07-24T16:32:49.145Z,5.32
2023-07-24T16:35:52.232Z,4.90
2023-07-24T16:38:53.717Z,4.97
2023-07-24T16:41:55.328Z,5.32
2023-07-24T16:44:59.504Z,5.72
2023-07-24T16:48:03.224Z,5.93
2023-07-24T16:51:05.156Z,5.78
2023-07-24T16:54:06.834Z,5.10
2023-07-24T16:57:08.290Z,5.47
2023-07-24T17:00:10.436Z,5.82
2023-07-24T17:03:12.097Z,5.50
2023-07-24T17:06:13.543Z,5.32
2023-07-24T17:09:15.037Z,5.10
2023-07-24T17:12:16.638Z,5.55
2023-07-24T17:15:18.105Z,5.85
2023-07-24T17:18:19.554Z,6.15
2023-07-24T17:21:22.496Z,6.32
2023-07-24T17:24:24.062Z,5.72
2023-07-24T17:27:26.370Z,5.22
2023-07-24T17:30:27.802Z,4.95
2023-07-24T17:33:29.241Z,5.95
2023-07-24T17:36:30.647Z,7.10
2023-07-24T17:39:32.071Z,5.90
2023-07-24T17:42:33.617Z,5.22
2023-07-24T17:45:35.524Z,5.65
2023-07-24T17:48:37.961Z,5.10
2023-07-24T17:51:39.474Z,4.85
2023-07-24T17:54:46.669Z,4.07
2023-07-24T17:57:50.751Z,4.03
2023-07-24T18:00:53.623Z,2.47
2023-07-24T18:03:55.093Z,2.00
2023-07-24T18:06:56.754Z,2.05
2023-07-24T18:09:58.138Z,2.20
2023-07-24T18:12:59.898Z,2.00
2023-07-24T18:16:01.324Z,2.30
2023-07-24T18:19:04.820Z,2.00
2023-07-24T18:22:06.287Z,2.42
2023-07-24T18:25:08.308Z,2.28
2023-07-24T18:28:12.627Z,1.80
2023-07-24T18:31:14.208Z,1.80
2023-07-24T18:34:16.348Z,1.98
2023-07-24T18:37:17.749Z,2.42
2023-07-24T18:40:19.178Z,1.85
2023-07-24T18:43:20.582Z,2.38
2023-07-24T18:46:22.068Z,1.70
2023-07-24T18:49:23.733Z,1.90
2023-07-24T18:52:25.132Z,2.55
2023-07-24T18:55:26.530Z,2.55
2023-07-24T18:58:28.010Z,2.90
2023-07-24T19:01:29.876Z,2.30
2023-07-24T19:04:31.562Z,2.88
2023-07-24T19:07:32.947Z,2.45
2023-07-24T19:10:34.508Z,2.38
2023-07-24T19:13:37.124Z,2.53
2023-07-24T19:16:38.852Z,2.85
2023-07-24T19:19:40.334Z,2.45
2023-07-24T19:22:41.771Z,2.72
2023-07-24T19:25:43.236Z,2.40
2023-07-24T19:28:50.892Z,2.80
2023-07-24T19:31:53.716Z,3.00
2023-07-24T19:34:57.226Z,2.88
2023-07-24T19:37:58.682Z,3.35
2023-07-24T19:41:01.993Z,3.05
2023-07-24T19:44:03.445Z,2.95
2023-07-24T19:47:05.301Z,2.72
2023-07-24T19:50:07.379Z,3.40
2023-07-24T19:53:08.916Z,2.90
2023-07-24T19:56:10.510Z,2.97
2023-07-24T19:59:11.989Z,2.88
2023-07-24T20:02:13.748Z,2.70
2023-07-24T20:05:15.254Z,2.90
2023-07-24T20:08:16.714Z,3.42
2023-07-24T20:11:18.165Z,3.58
2023-07-24T20:14:19.661Z,3.65
2023-07-24T20:17:21.138Z,3.22
2023-07-24T20:20:22.642Z,3.10
2023-07-24T20:23:24.485Z,3.67
2023-07-24T20:26:25.962Z,3.92
2023-07-24T20:29:27.404Z,3.67
2023-07-24T20:32:30.552Z,4.25
2023-07-24T20:35:33.367Z,3.60
2023-07-24T20:38:36.372Z,4.43
2023-07-24T20:41:37.819Z,3.72
2023-07-24T20:44:39.207Z,4.00
2023-07-24T20:47:40.685Z,3.78
2023-07-24T20:50:42.141Z,3.67
2023-07-24T20:53:43.916Z,4.05
2023-07-24T20:56:45.317Z,3.22
2023-07-24T20:59:47.576Z,3.53
2023-07-24T21:02:49.140Z,4.03
2023-07-24T21:05:50.695Z,3.55
2023-07-24T21:08:52.183Z,3.65
2023-07-24T21:11:53.625Z,3.78
2023-07-24T21:14:55.058Z,3.42
2023-07-24T21:17:56.522Z,3.47
2023-07-24T21:21:00.660Z,3.13
2023-07-24T21:24:03.353Z,3.22
2023-07-24T21:27:04.996Z,3.17
2023-07-24T21:30:07.556Z,3.17
2023-07-24T21:33:08.948Z,2.70
2023-07-24T21:36:10.603Z,2.47
2023-07-24T21:39:12.047Z,3.10
2023-07-24T21:42:13.468Z,2.55
2023-07-24T21:45:14.965Z,3.10
2023-07-24T21:48:16.790Z,2.92
2023-07-24T21:51:18.210Z,3.17
2023-07-24T21:54:19.662Z,2.97
2023-07-24T21:57:22.664Z,3.05
2023-07-24T22:00:26.063Z,2.80
2023-07-24T22:03:27.590Z,3.45
2023-07-24T22:06:29.208Z,2.75
2023-07-24T22:09:31.096Z,2.97
2023-07-24T22:12:33.869Z,3.15
2023-07-24T22:15:35.338Z,3.40
2023-07-24T22:18:36.826Z,2.50
2023-07-24T22:21:38.248Z,3.20
2023-07-24T22:24:40.430Z,2.60
2023-07-24T22:27:41.972Z,2.92
2023-07-24T22:30:43.519Z,3.38
2023-07-24T22:33:44.949Z,3.13
2023-07-24T22:36:46.360Z,2.45
2023-07-24T22:39:48.079Z,3.28
2023-07-24T22:42:49.507Z,2.70
2023-07-24T22:45:51.070Z,2.63
2023-07-24T22:48:52.537Z,3.08
2023-07-24T22:51:54.419Z,2.60
2023-07-24T22:54:55.944Z,3.13
2023-07-24T22:57:57.975Z,3.10
2023-07-24T23:00:59.506Z,2.72
2023-07-24T23:04:01.018Z,3.05
2023-07-24T23:07:02.477Z,2.50
2023-07-24T23:10:04.159Z,2.85
2023-07-24T23:13:05.661Z,2.80
2023-07-24T23:16:07.315Z,2.53
2023-07-24T23:19:09.064Z,3.20
2023-07-24T23:22:10.529Z,2.95
2023-07-24T23:25:11.908Z,3.22
2023-07-24T23:28:14.421Z,2.88
2023-07-24T23:31:15.912Z,2.60
2023-07-24T23:34:17.364Z,2.90
2023-07-24T23:37:18.772Z,3.05
2023-07-24T23:40:20.177Z,3.45
2023-07-24T23:43:21.598Z,3.28
2023-07-24T23:46:23.061Z,3.50
2023-07-24T23:49:24.554Z,3.33
2023-07-24T23:52:25.976Z,3.28
2023-07-24T23:55:31.570Z,3.45
2023-07-24T23:58:32.970Z,3.58
